createdAt,value
2022-12-29T00:00:11.738Z,1.70
2022-12-29T00:02:39.216Z,1.70
2022-12-29T00:05:08.004Z,2.15
2022-12-29T00:07:35.431Z,1.83
2022-12-29T00:10:28.421Z,1.33
2022-12-29T00:13:17.301Z,1.70
2022-12-29T00:15:44.641Z,1.75
2022-12-29T00:18:12.162Z,2.00
2022-12-29T00:20:58.198Z,1.75
2022-12-29T00:23:44.075Z,1.92
2022-12-29T00:26:36.589Z,1.80
2022-12-29T00:29:22.281Z,1.90
2022-12-29T00:32:08.268Z,1.75
2022-12-29T00:34:54.265Z,2.25
2022-12-29T00:37:43.593Z,1.48
2022-12-29T00:40:29.551Z,1.77
2022-12-29T00:43:15.453Z,1.60
2022-12-29T00:45:42.984Z,1.92
2022-12-29T00:48:10.182Z,1.92
2022-12-29T00:50:37.499Z,1.92
2022-12-29T00:53:04.797Z,1.73
2022-12-29T00:55:32.291Z,2.25
2022-12-29T00:57:59.663Z,1.73
2022-12-29T01:00:26.987Z,1.80
2022-12-29T01:02:54.575Z,1.60
2022-12-29T01:05:22.096Z,1.60
2022-12-29T01:07:49.266Z,1.60
2022-12-29T01:10:16.634Z,1.63
2022-12-29T01:12:46.267Z,1.60
2022-12-29T01:15:15.553Z,1.17
2022-12-29T01:17:43.454Z,1.58
2022-12-29T01:20:11.968Z,1.40
2022-12-29T01:22:39.615Z,1.40
2022-12-29T01:25:07.724Z,1.65
2022-12-29T01:27:35.231Z,2.03
2022-12-29T01:30:02.447Z,1.90
2022-12-29T01:32:29.742Z,1.77
2022-12-29T01:34:56.965Z,1.65
2022-12-29T01:37:24.269Z,1.40
2022-12-29T01:39:51.407Z,1.65
2022-12-29T01:42:20.968Z,1.70
2022-12-29T01:44:50.003Z,1.88
2022-12-29T01:47:31.935Z,1.92
2022-12-29T01:50:04.761Z,1.80
2022-12-29T01:52:33.987Z,2.05
2022-12-29T01:55:03.874Z,1.77
2022-12-29T01:57:34.152Z,1.50
2022-12-29T02:00:10.418Z,1.60
2022-12-29T02:02:38.115Z,1.80
2022-12-29T02:05:12.629Z,1.55
2022-12-29T02:07:43.531Z,1.52
2022-12-29T02:10:10.790Z,1.55
2022-12-29T02:12:38.162Z,2.03
2022-12-29T02:15:06.125Z,2.00
2022-12-29T02:18:16.022Z,2.30
2022-12-29T02:21:04.606Z,2.13
2022-12-29T02:24:07.697Z,1.90
2022-12-29T02:27:07.277Z,2.33
2022-12-29T02:29:51.329Z,1.80
2022-12-29T02:32:31.200Z,1.67
2022-12-29T02:35:01.819Z,1.75
2022-12-29T02:37:41.254Z,1.92
2022-12-29T02:40:25.117Z,1.50
2022-12-29T02:42:56.537Z,1.58
2022-12-29T02:45:33.241Z,2.15
2022-12-29T02:48:11.177Z,2.50
2022-12-29T02:50:41.992Z,2.00
2022-12-29T02:53:12.486Z,2.13
2022-12-29T02:55:42.229Z,1.55
2022-12-29T02:58:23.540Z,1.55
2022-12-29T03:01:17.863Z,1.80
2022-12-29T03:04:12.121Z,1.77
2022-12-29T03:07:01.272Z,1.50
2022-12-29T03:09:49.668Z,1.48
2022-12-29T03:13:06.188Z,1.42
2022-12-29T03:16:08.199Z,1.52
2022-12-29T03:19:08.307Z,1.60
2022-12-29T03:22:18.918Z,1.40
2022-12-29T03:24:50.687Z,1.40
2022-12-29T03:27:39.628Z,1.42
2022-12-29T03:30:08.231Z,1.25
2022-12-29T03:32:49.971Z,1.55
2022-12-29T03:35:18.955Z,1.60
2022-12-29T03:38:20.489Z,1.33
2022-12-29T03:40:54.108Z,1.70
2022-12-29T03:43:22.802Z,1.90
2022-12-29T03:45:50.219Z,1.30
2022-12-29T03:48:17.644Z,1.38
2022-12-29T03:50:45.620Z,1.80
2022-12-29T03:53:13.157Z,1.73
2022-12-29T03:55:40.760Z,1.80
2022-12-29T03:58:08.320Z,1.45
2022-12-29T04:00:35.903Z,1.58
2022-12-29T04:03:03.225Z,1.17
2022-12-29T04:05:30.695Z,1.42
2022-12-29T04:07:58.223Z,1.30
2022-12-29T04:10:25.554Z,1.55
2022-12-29T04:12:53.035Z,1.45
2022-12-29T04:15:20.523Z,1.60
2022-12-29T04:17:47.833Z,1.70
2022-12-29T04:20:33.707Z,1.27
2022-12-29T04:23:02.329Z,1.67
2022-12-29T04:25:29.873Z,1.30
2022-12-29T04:27:57.192Z,1.60
2022-12-29T04:30:38.546Z,1.20
2022-12-29T04:33:06.542Z,1.40
2022-12-29T04:35:33.889Z,1.50
2022-12-29T04:38:01.387Z,1.98
2022-12-29T04:40:28.601Z,1.67
2022-12-29T04:42:56.012Z,1.58
2022-12-29T04:45:23.195Z,1.40
2022-12-29T04:47:50.389Z,1.65
2022-12-29T04:50:17.801Z,1.50
2022-12-29T04:52:45.158Z,1.38
2022-12-29T04:55:12.330Z,1.23
2022-12-29T04:57:39.581Z,1.80
2022-12-29T05:00:07.487Z,1.60
2022-12-29T05:02:34.996Z,1.58
2022-12-29T05:05:02.323Z,1.50
2022-12-29T05:07:29.533Z,1.50
2022-12-29T05:09:56.765Z,1.42
2022-12-29T05:12:23.898Z,1.50
2022-12-29T05:14:51.138Z,1.17
2022-12-29T05:17:18.356Z,1.25
2022-12-29T05:19:45.796Z,1.70
2022-12-29T05:22:12.942Z,1.13
2022-12-29T05:24:40.137Z,1.60
2022-12-29T05:27:07.351Z,1.73
2022-12-29T05:29:34.803Z,1.60
2022-12-29T05:32:02.058Z,1.80
2022-12-29T05:34:29.225Z,1.35
2022-12-29T05:36:56.357Z,1.50
2022-12-29T05:39:23.668Z,1.73
2022-12-29T05:41:50.869Z,1.10
2022-12-29T05:44:18.247Z,1.40
2022-12-29T05:46:45.526Z,1.77
2022-12-29T05:49:12.777Z,1.50
2022-12-29T05:51:40.175Z,1.33
2022-12-29T05:54:07.304Z,1.30
2022-12-29T05:56:34.468Z,1.30
2022-12-29T05:59:01.693Z,1.50
2022-12-29T06:01:28.944Z,1.20
2022-12-29T06:03:56.215Z,1.27
2022-12-29T06:06:23.537Z,1.08
2022-12-29T06:08:50.638Z,1.20
2022-12-29T06:11:17.800Z,1.80
2022-12-29T06:13:45.009Z,1.42
2022-12-29T06:16:12.276Z,1.75
2022-12-29T06:18:39.511Z,1.42
2022-12-29T06:21:06.727Z,1.23
2022-12-29T06:23:34.437Z,1.40
2022-12-29T06:26:01.617Z,1.88
2022-12-29T06:28:28.803Z,1.35
2022-12-29T06:30:55.973Z,1.42
2022-12-29T06:33:23.211Z,1.23
2022-12-29T06:35:50.567Z,1.17
2022-12-29T06:38:17.686Z,1.30
2022-12-29T06:40:46.053Z,1.40
2022-12-29T06:43:13.396Z,1.27
2022-12-29T06:45:41.170Z,1.42
2022-12-29T06:48:08.822Z,1.50
2022-12-29T06:50:36.078Z,1.38
2022-12-29T06:53:03.317Z,1.23
2022-12-29T06:55:30.626Z,0.90
2022-12-29T06:57:59.400Z,1.45
2022-12-29T07:00:26.943Z,0.90
2022-12-29T07:02:56.190Z,1.25
2022-12-29T07:05:23.516Z,1.45
2022-12-29T07:07:50.684Z,1.67
2022-12-29T07:10:17.903Z,0.95
2022-12-29T07:12:45.088Z,1.40
2022-12-29T07:15:13.660Z,1.30
2022-12-29T07:17:41.203Z,2.35
2022-12-29T07:20:09.189Z,1.10
2022-12-29T07:22:36.521Z,1.20
2022-12-29T07:25:04.275Z,1.15
2022-12-29T07:27:31.469Z,1.45
2022-12-29T07:29:58.629Z,1.33
2022-12-29T07:32:25.815Z,1.30
2022-12-29T07:34:53.047Z,0.90
2022-12-29T07:37:20.527Z,1.13
2022-12-29T07:39:48.133Z,1.30
2022-12-29T07:42:15.273Z,1.08
2022-12-29T07:44:42.380Z,1.05
2022-12-29T07:47:09.584Z,1.27
2022-12-29T07:49:36.780Z,1.10
2022-12-29T07:52:04.067Z,1.15
2022-12-29T07:54:31.232Z,1.27
2022-12-29T07:57:01.033Z,1.02
2022-12-29T07:59:28.288Z,1.05
2022-12-29T08:01:55.580Z,0.98
2022-12-29T08:04:22.988Z,1.63
2022-12-29T08:06:51.374Z,1.35
2022-12-29T08:09:22.609Z,1.10
2022-12-29T08:11:51.892Z,1.13
2022-12-29T08:14:19.369Z,1.23
2022-12-29T08:16:46.685Z,1.30
2022-12-29T08:19:14.433Z,1.10
2022-12-29T08:21:41.627Z,1.50
2022-12-29T08:24:09.348Z,1.48
2022-12-29T08:26:36.552Z,1.38
2022-12-29T08:29:03.662Z,0.90
2022-12-29T08:31:30.980Z,1.00
2022-12-29T08:33:58.165Z,1.10
2022-12-29T08:36:25.286Z,1.20
2022-12-29T08:38:52.479Z,1.27
2022-12-29T08:41:19.629Z,1.10
2022-12-29T08:43:48.202Z,1.40
2022-12-29T08:46:15.865Z,1.40
2022-12-29T08:48:43.100Z,1.23
2022-12-29T08:51:10.304Z,1.05
2022-12-29T08:53:37.437Z,1.10
2022-12-29T08:56:05.737Z,1.40
2022-12-29T08:58:33.194Z,0.93
2022-12-29T09:01:00.405Z,1.23
2022-12-29T09:06:17.778Z,1.25
2022-12-29T09:08:45.324Z,1.33
2022-12-29T09:11:21.473Z,1.13
2022-12-29T09:13:49.163Z,1.30
2022-12-29T09:16:17.713Z,1.38
2022-12-29T09:18:45.615Z,1.00
2022-12-29T09:21:13.620Z,1.20
2022-12-29T09:23:41.542Z,1.20
2022-12-29T09:26:09.521Z,1.35
2022-12-29T09:28:37.741Z,1.27
2022-12-29T09:31:05.208Z,0.98
2022-12-29T09:33:34.337Z,1.45
2022-12-29T09:36:01.973Z,1.27
2022-12-29T09:38:29.684Z,1.00
2022-12-29T09:41:02.858Z,0.98
2022-12-29T09:43:53.676Z,1.50
2022-12-29T09:46:28.877Z,1.48
2022-12-29T09:49:09.612Z,1.45
2022-12-29T09:51:39.533Z,1.58
2022-12-29T09:54:32.063Z,1.55
2022-12-29T09:56:59.667Z,1.60
2022-12-29T09:59:55.445Z,1.38
2022-12-29T10:02:39.073Z,1.13
2022-12-29T10:05:16.373Z,1.15
2022-12-29T10:07:53.767Z,1.00
2022-12-29T10:10:20.972Z,1.40
2022-12-29T10:13:00.130Z,1.20
2022-12-29T10:15:48.620Z,0.85
2022-12-29T10:18:40.780Z,0.98
2022-12-29T10:21:26.495Z,1.30
2022-12-29T10:23:54.568Z,1.13
2022-12-29T10:26:27.502Z,1.00
2022-12-29T10:28:58.844Z,1.30
2022-12-29T10:31:40.834Z,1.10
2022-12-29T10:34:38.248Z,1.38
2022-12-29T10:37:12.888Z,0.90
2022-12-29T10:39:59.253Z,1.20
2022-12-29T10:42:28.237Z,1.23
2022-12-29T10:44:56.372Z,0.95
2022-12-29T10:47:26.736Z,1.55
2022-12-29T10:49:59.367Z,0.80
2022-12-29T10:52:27.908Z,1.15
2022-12-29T10:55:18.375Z,1.08
2022-12-29T10:57:46.557Z,1.13
2022-12-29T11:00:21.613Z,0.98
2022-12-29T11:03:00.101Z,0.93
2022-12-29T11:05:36.042Z,1.73
2022-12-29T11:08:09.492Z,0.90
2022-12-29T11:10:39.950Z,1.15
2022-12-29T11:13:19.034Z,0.90
2022-12-29T11:15:50.908Z,1.10
2022-12-29T11:18:26.977Z,0.75
2022-12-29T11:21:02.410Z,1.10
2022-12-29T11:23:31.103Z,1.23
2022-12-29T11:26:26.471Z,1.20
2022-12-29T11:29:09.823Z,0.90
2022-12-29T11:31:45.281Z,1.23
2022-12-29T11:34:27.862Z,1.08
2022-12-29T11:37:01.679Z,1.05
2022-12-29T11:39:38.085Z,0.95
2022-12-29T11:42:10.622Z,0.93
2022-12-29T11:44:42.773Z,1.10
2022-12-29T11:47:15.082Z,1.08
2022-12-29T11:49:42.465Z,1.23
2022-12-29T11:52:10.469Z,1.25
2022-12-29T11:54:39.204Z,1.10
2022-12-29T11:57:15.255Z,1.20
2022-12-29T11:59:45.172Z,1.02
2022-12-29T12:02:51.407Z,1.00
2022-12-29T12:05:28.157Z,0.95
2022-12-29T12:08:09.301Z,0.70
2022-12-29T12:10:45.931Z,0.82
2022-12-29T12:13:27.083Z,0.60
2022-12-29T12:16:00.733Z,0.60
2022-12-29T12:18:31.869Z,0.60
2022-12-29T12:21:06.621Z,1.10
2022-12-29T12:23:43.358Z,0.70
2022-12-29T12:26:12.761Z,0.70
2022-12-29T12:28:57.097Z,0.82
2022-12-29T12:31:46.166Z,0.55
2022-12-29T12:34:41.057Z,0.82
2022-12-29T12:37:16.581Z,0.75
2022-12-29T12:39:48.782Z,0.95
2022-12-29T12:42:26.163Z,0.80
2022-12-29T12:45:27.612Z,0.85
2022-12-29T12:48:23.373Z,0.80
2022-12-29T12:53:55.194Z,0.80
2022-12-29T12:56:31.595Z,1.13
2022-12-29T12:59:13.289Z,0.80
2022-12-29T13:02:02.282Z,1.30
2022-12-29T13:05:08.148Z,0.80
2022-12-29T13:07:51.243Z,0.73
2022-12-29T13:10:54.286Z,0.80
2022-12-29T13:13:27.616Z,1.00
2022-12-29T13:16:21.981Z,0.70
2022-12-29T13:18:55.555Z,0.70
2022-12-29T13:22:00.142Z,0.60
2022-12-29T13:24:41.298Z,0.80
2022-12-29T13:27:54.124Z,1.00
2022-12-29T13:30:23.568Z,0.95
2022-12-29T13:32:59.063Z,0.80
2022-12-29T13:35:59.373Z,0.80
2022-12-29T13:38:45.456Z,0.98
2022-12-29T13:43:49.200Z,1.27
2022-12-29T13:46:25.125Z,1.00
2022-12-29T13:49:02.459Z,0.70
2022-12-29T13:51:30.214Z,1.33
2022-12-29T13:54:11.426Z,0.90
2022-12-29T13:56:50.572Z,1.90
2022-12-29T13:59:36.724Z,1.10
2022-12-29T14:04:34.369Z,0.90
2022-12-29T14:07:05.674Z,0.95
2022-12-29T14:09:55.055Z,0.90
2022-12-29T14:12:23.665Z,0.73
2022-12-29T14:14:51.297Z,1.58
2022-12-29T14:17:22.015Z,1.23
2022-12-29T14:19:53.975Z,1.58
2022-12-29T14:22:33.052Z,1.55
2022-12-29T14:25:01.734Z,1.25
2022-12-29T14:27:29.169Z,1.73
2022-12-29T14:29:56.539Z,1.70
2022-12-29T14:32:26.837Z,1.33
2022-12-29T14:34:59.413Z,1.20
2022-12-29T14:37:37.060Z,1.10
2022-12-29T14:40:06.199Z,1.10
2022-12-29T14:42:34.385Z,1.40
2022-12-29T14:45:06.557Z,1.65
2022-12-29T14:47:39.720Z,1.30
2022-12-29T14:50:22.551Z,1.48
2022-12-29T14:53:02.006Z,1.20
2022-12-29T14:55:48.077Z,1.60
2022-12-29T14:58:30.310Z,1.25
2022-12-29T15:00:58.683Z,1.25
2022-12-29T15:03:51.957Z,1.50
2022-12-29T15:06:23.272Z,1.83
2022-12-29T15:09:01.188Z,1.30
2022-12-29T15:11:37.774Z,1.40
2022-12-29T15:14:27.572Z,1.48
2022-12-29T15:16:55.068Z,1.20
2022-12-29T15:19:23.838Z,2.10
2022-12-29T15:21:51.689Z,1.63
2022-12-29T15:24:19.757Z,1.20
2022-12-29T15:26:49.697Z,1.15
2022-12-29T15:29:44.543Z,1.20
2022-12-29T15:32:19.759Z,1.05
2022-12-29T15:34:50.219Z,1.10
2022-12-29T15:37:22.375Z,0.93
2022-12-29T15:39:50.555Z,1.10
2022-12-29T15:42:26.949Z,1.40
2022-12-29T15:45:03.229Z,1.35
2022-12-29T15:47:37.178Z,1.45
2022-12-29T15:50:10.471Z,1.50
2022-12-29T15:52:40.294Z,1.85
2022-12-29T15:55:20.969Z,1.80
2022-12-29T15:57:48.445Z,2.20
2022-12-29T16:00:27.973Z,1.83
2022-12-29T16:02:57.083Z,2.08
2022-12-29T16:05:25.161Z,2.42
2022-12-29T16:07:54.590Z,3.08
2022-12-29T16:10:31.552Z,1.85
2022-12-29T16:13:22.165Z,2.22
2022-12-29T16:15:49.465Z,2.15
2022-12-29T16:18:28.784Z,1.73
2022-12-29T16:20:56.869Z,2.08
2022-12-29T16:23:26.775Z,1.98
2022-12-29T16:25:58.936Z,1.85
2022-12-29T16:28:33.156Z,2.80
2022-12-29T16:31:07.472Z,2.22
2022-12-29T16:33:41.370Z,1.75
2022-12-29T16:36:32.106Z,2.08
2022-12-29T16:39:22.719Z,1.95
2022-12-29T16:41:51.327Z,2.05
2022-12-29T16:44:23.130Z,1.77
2022-12-29T16:47:08.475Z,1.73
2022-12-29T16:49:37.125Z,1.92
2022-12-29T16:52:31.021Z,2.45
2022-12-29T16:55:02.111Z,1.73
2022-12-29T16:57:34.926Z,2.10
2022-12-29T17:00:06.105Z,1.52
2022-12-29T17:02:34.807Z,1.70
2022-12-29T17:05:02.242Z,1.70
2022-12-29T17:07:30.169Z,1.63
2022-12-29T17:09:57.835Z,1.40
2022-12-29T17:12:27.676Z,1.88
2022-12-29T17:14:59.141Z,1.70
2022-12-29T17:17:33.901Z,1.75
2022-12-29T17:20:05.422Z,1.63
2022-12-29T17:22:33.442Z,1.80
2022-12-29T17:25:03.061Z,1.70
2022-12-29T17:27:38.325Z,1.98
2022-12-29T17:30:12.038Z,1.58
2022-12-29T17:32:41.073Z,1.20
2022-12-29T17:35:19.225Z,1.55
2022-12-29T17:37:46.779Z,1.17
2022-12-29T17:40:21.446Z,1.60
2022-12-29T17:42:50.453Z,1.35
2022-12-29T17:45:21.009Z,1.63
2022-12-29T17:47:48.606Z,1.33
2022-12-29T17:50:18.608Z,1.17
2022-12-29T17:53:00.194Z,1.38
2022-12-29T17:55:34.715Z,1.58
2022-12-29T17:58:33.851Z,1.92
2022-12-29T18:01:02.142Z,1.20
2022-12-29T18:03:32.108Z,1.60
2022-12-29T18:06:00.377Z,1.70
2022-12-29T18:08:30.621Z,1.30
2022-12-29T18:10:58.167Z,1.65
2022-12-29T18:13:43.609Z,1.40
2022-12-29T18:16:14.753Z,1.38
2022-12-29T18:18:42.275Z,1.40
2022-12-29T18:21:17.305Z,1.30
2022-12-29T18:23:44.814Z,1.80
2022-12-29T18:26:19.616Z,1.42
2022-12-29T18:28:53.071Z,1.50
2022-12-29T18:31:23.218Z,1.42
2022-12-29T18:33:51.811Z,1.52
2022-12-29T18:36:19.718Z,1.95
2022-12-29T18:38:47.241Z,1.42
2022-12-29T18:41:21.623Z,1.83
2022-12-29T18:43:49.594Z,2.20
2022-12-29T18:46:22.417Z,2.13
2022-12-29T18:48:51.351Z,2.65
2022-12-29T18:51:20.854Z,3.92
2022-12-29T18:53:49.092Z,3.20
2022-12-29T18:56:16.497Z,3.70
2022-12-29T18:58:43.827Z,6.15
2022-12-29T19:01:23.258Z,6.50
2022-12-29T19:03:51.135Z,5.75
2022-12-29T19:06:19.409Z,5.35
2022-12-29T19:08:46.913Z,5.22
2022-12-29T19:11:14.091Z,4.82
2022-12-29T19:13:41.588Z,4.15
2022-12-29T19:20:28.037Z,4.03
2022-12-29T19:22:56.524Z,4.00
2022-12-29T19:25:24.372Z,5.03
2022-12-29T19:27:52.505Z,4.13
2022-12-29T19:30:20.017Z,4.70
2022-12-29T19:32:55.397Z,5.15
2022-12-29T19:35:25.124Z,5.22
2022-12-29T19:37:53.180Z,5.25
2022-12-29T19:40:24.011Z,4.45
2022-12-29T19:42:52.201Z,5.13
2022-12-29T19:45:20.668Z,4.53
2022-12-29T19:47:49.079Z,4.00
2022-12-29T19:50:17.454Z,3.78
2022-12-29T19:52:45.274Z,4.07
2022-12-29T19:55:15.739Z,4.07
2022-12-29T19:57:43.619Z,3.83
2022-12-29T20:00:11.875Z,3.80
2022-12-29T20:02:39.556Z,3.95
2022-12-29T20:05:08.519Z,3.65
2022-12-29T20:07:36.817Z,3.95
2022-12-29T20:10:06.093Z,3.92
2022-12-29T20:12:35.213Z,3.60
2022-12-29T20:15:02.852Z,3.95
2022-12-29T20:18:02.626Z,4.60
2022-12-29T20:20:17.656Z,3.15
2022-12-29T20:22:44.960Z,2.70
2022-12-29T20:25:43.832Z,3.85
2022-12-29T20:28:00.164Z,3.70
2022-12-29T20:30:27.600Z,3.72
2022-12-29T20:32:55.012Z,4.82
2022-12-29T20:35:22.457Z,4.50
2022-12-29T20:37:49.849Z,4.38
2022-12-29T20:40:20.456Z,3.80
2022-12-29T20:42:47.831Z,3.42
2022-12-29T20:45:15.246Z,3.10
2022-12-29T20:47:42.566Z,2.47
2022-12-29T20:50:09.800Z,2.75
2022-12-29T20:52:37.115Z,2.65
2022-12-29T20:55:04.597Z,2.15
2022-12-29T20:57:49.658Z,2.80
2022-12-29T21:00:22.661Z,2.20
2022-12-29T21:02:50.550Z,2.47
2022-12-29T21:05:25.793Z,2.17
2022-12-29T21:07:55.191Z,2.53
2022-12-29T21:10:22.655Z,2.25
2022-12-29T21:12:50.178Z,2.15
2022-12-29T21:15:17.608Z,2.25
2022-12-29T21:17:45.775Z,2.03
2022-12-29T21:20:22.119Z,2.17
2022-12-29T21:22:49.640Z,1.75
2022-12-29T21:25:17.200Z,2.53
2022-12-29T21:27:44.609Z,2.40
2022-12-29T21:30:12.821Z,2.00
2022-12-29T21:32:41.073Z,2.80
2022-12-29T21:35:09.427Z,2.38
2022-12-29T21:37:37.088Z,1.80
2022-12-29T21:40:05.769Z,1.90
2022-12-29T21:42:33.211Z,2.13
2022-12-29T21:45:21.014Z,2.13
2022-12-29T21:48:07.657Z,2.40
2022-12-29T21:50:58.636Z,1.60
2022-12-29T21:53:37.903Z,1.95
2022-12-29T21:56:09.633Z,1.98
2022-12-29T21:58:57.497Z,1.90
2022-12-29T22:01:44.552Z,2.25
2022-12-29T22:04:32.567Z,1.92
2022-12-29T22:07:18.336Z,1.90
2022-12-29T22:10:04.389Z,1.50
2022-12-29T22:12:50.628Z,1.80
2022-12-29T22:15:18.191Z,1.50
2022-12-29T22:17:48.835Z,1.85
2022-12-29T22:20:20.796Z,1.60
2022-12-29T22:22:48.372Z,1.58
2022-12-29T22:25:15.893Z,2.15
2022-12-29T22:27:43.763Z,1.45
2022-12-29T22:30:11.698Z,3.03
2022-12-29T22:32:39.249Z,1.55
2022-12-29T22:35:08.251Z,1.58
2022-12-29T22:37:37.060Z,1.48
2022-12-29T22:40:05.667Z,1.38
2022-12-29T22:42:33.422Z,2.05
2022-12-29T22:45:00.732Z,1.83
2022-12-29T22:47:28.350Z,2.03
2022-12-29T22:49:55.770Z,1.27
2022-12-29T22:52:23.206Z,1.23
2022-12-29T22:54:50.645Z,1.98
2022-12-29T22:57:18.122Z,1.48
2022-12-29T22:59:45.488Z,1.70
2022-12-29T23:02:13.421Z,2.03
2022-12-29T23:05:02.905Z,2.55
2022-12-29T23:07:28.955Z,2.00
2022-12-29T23:09:56.398Z,1.77
2022-12-29T23:12:23.747Z,3.05
2022-12-29T23:14:51.023Z,1.83
2022-12-29T23:17:18.417Z,1.83
2022-12-29T23:19:45.737Z,1.55
2022-12-29T23:22:13.280Z,2.05
2022-12-29T23:24:40.564Z,1.30
2022-12-29T23:27:08.025Z,1.40
2022-12-29T23:29:35.492Z,1.17
2022-12-29T23:32:02.936Z,1.83
2022-12-29T23:34:30.586Z,1.88
2022-12-29T23:37:00.202Z,1.35
2022-12-29T23:39:29.171Z,1.80
2022-12-29T23:41:57.239Z,1.77
2022-12-29T23:44:25.206Z,1.80
2022-12-29T23:46:53.108Z,1.65
2022-12-29T23:49:20.822Z,1.70
2022-12-29T23:51:48.151Z,1.20
2022-12-29T23:54:15.638Z,1.77
2022-12-29T23:56:43.019Z,1.48
2022-12-29T23:59:10.576Z,1.60
